Time;durP1;ratioP1;P1;durP2;ratioP2;P2;SDS_P1;SDS_P2;PMS_P1;PMS_P2;Temp;Humidity;BMP_temperature;BMP_pressure;BME280_temperature;BME280_humidity;BME280_pressure;Samples;Min_cycle;Max_cycle;Signal;HPM_P1;HPM_P2
2021/05/02 00:16:00;;;;;;;15.45;12.00;;;9.70;45.60;;;;;;6108352;23;20216;-80
2021/05/02 00:18:40;;;;;;;11.75;10.55;;;9.80;43.90;;;;;;6123753;23;20169;-80
2021/05/02 00:21:16;;;;;;;10.20;9.07;;;9.80;44.20;;;;;;6124885;23;20200;-80
2021/05/02 00:23:47;;;;;;;10.77;9.77;;;9.70;42.30;;;;;;6123126;23;20241;-81
2021/05/02 00:26:15;;;;;;;11.48;10.27;;;9.80;40.30;;;;;;6123204;23;20165;-80
2021/05/02 00:52:38;;;;;;;10.80;9.70;;;9.80;38.90;;;;;;6078009;23;20220;-77
2021/05/02 00:55:07;;;;;;;11.27;9.68;;;9.80;39.20;;;;;;6085779;23;20173;-78
2021/05/02 00:57:44;;;;;;;11.50;10.30;;;9.80;39.50;;;;;;6087142;23;20185;-79
2021/05/02 01:00:12;;;;;;;13.48;10.73;;;9.70;40.20;;;;;;6078998;23;20189;-78
2021/05/02 01:02:42;;;;;;;10.55;9.55;;;9.70;40.00;;;;;;6070572;23;20213;-78
2021/05/02 01:05:11;;;;;;;10.50;9.50;;;9.70;40.10;;;;;;6071145;23;20516;-79
2021/05/02 01:07:40;;;;;;;10.90;9.80;;;9.70;40.20;;;;;;6069844;23;20556;-79
2021/05/02 01:10:11;;;;;;;11.98;10.77;;;9.70;40.20;;;;;;6071520;23;20217;-79
2021/05/02 01:12:44;;;;;;;12.98;11.63;;;9.70;40.20;;;;;;6072097;23;20182;-78
2021/05/02 01:15:13;;;;;;;12.40;10.85;;;9.60;40.20;;;;;;6074372;23;20214;-78
2021/05/02 01:17:42;;;;;;;13.75;12.27;;;9.60;40.20;;;;;;6074616;23;20181;-77
2021/05/02 01:20:12;;;;;;;12.68;11.35;;;9.70;40.20;;;;;;6069971;23;20182;-77
2021/05/02 01:22:44;;;;;;;11.68;10.40;;;9.60;40.80;;;;;;6071617;23;20178;-77
2021/05/02 01:25:12;;;;;;;14.60;11.45;;;9.60;40.20;;;;;;6071787;23;20193;-77
2021/05/02 01:27:39;;;;;;;13.45;12.05;;;9.60;40.20;;;;;;6072630;23;20186;-78
2021/05/02 01:30:08;;;;;;;13.70;12.00;;;9.60;41.30;;;;;;6073863;23;20186;-78
2021/05/02 01:32:35;;;;;;;12.98;11.68;;;9.60;41.70;;;;;;6073175;23;20585;-77
2021/05/02 01:35:04;;;;;;;12.60;11.43;;;9.50;41.10;;;;;;6075211;23;20206;-79
2021/05/02 01:37:31;;;;;;;14.35;12.25;;;9.50;41.40;;;;;;6073395;23;20197;-79
2021/05/02 01:39:58;;;;;;;12.93;11.52;;;9.40;42.20;;;;;;6071840;23;20212;-78
2021/05/02 01:42:26;;;;;;;14.52;12.80;;;9.40;42.30;;;;;;6071094;23;20265;-78
2021/05/02 01:44:52;;;;;;;14.48;12.45;;;9.40;42.60;;;;;;6072898;23;20221;-78
2021/05/02 01:47:21;;;;;;;13.07;11.63;;;9.40;42.90;;;;;;6071588;23;20264;-78
2021/05/02 01:49:51;;;;;;;17.75;12.48;;;9.40;42.70;;;;;;6072852;23;20572;-78
2021/05/02 01:52:19;;;;;;;14.00;12.70;;;9.30;43.10;;;;;;6086311;23;20224;-76
2021/05/02 01:54:46;;;;;;;15.00;12.85;;;9.30;43.00;;;;;;6083868;23;20206;-78
2021/05/02 01:57:19;;;;;;;13.60;11.40;;;9.30;43.50;;;;;;6073875;23;20186;-79
2021/05/02 01:59:47;;;;;;;14.88;12.73;;;9.40;44.10;;;;;;6074540;23;20231;-78
2021/05/02 02:02:16;;;;;;;13.82;12.48;;;9.40;43.60;;;;;;6070933;23;20208;-78
2021/05/02 02:04:45;;;;;;;15.23;13.18;;;9.40;43.80;;;;;;6072454;23;20185;-77
2021/05/02 02:07:13;;;;;;;13.38;11.98;;;9.40;43.50;;;;;;6085873;23;20174;-79
2021/05/02 02:09:40;;;;;;;14.52;13.05;;;9.40;44.70;;;;;;6094079;23;20183;-75
2021/05/02 02:12:08;;;;;;;13.75;12.30;;;9.40;45.40;;;;;;6095215;23;20202;-76
2021/05/02 02:14:36;;;;;;;14.48;12.98;;;9.30;45.60;;;;;;6093262;23;20216;-76
2021/05/02 02:17:04;;;;;;;15.48;13.85;;;9.30;47.60;;;;;;6091454;23;20177;-77
2021/05/02 02:19:30;;;;;;;13.73;12.43;;;9.40;48.10;;;;;;6091670;23;20170;-78
2021/05/02 02:21:59;;;;;;;14.63;13.18;;;9.40;48.60;;;;;;6082757;23;20206;-79
2021/05/02 02:24:41;;;;;;;14.57;13.07;;;9.40;47.90;;;;;;6080287;23;20182;-79
2021/05/02 02:27:09;;;;;;;13.75;11.93;;;9.50;47.90;;;;;;6086081;23;20181;-80
2021/05/02 02:29:39;;;;;;;14.45;12.95;;;9.40;48.50;;;;;;6083762;23;20186;-79
2021/05/02 02:32:10;;;;;;;14.50;12.85;;;9.40;49.70;;;;;;6086072;23;20233;-77
2021/05/02 02:34:42;;;;;;;14.45;12.95;;;9.40;49.70;;;;;;6087709;23;20193;-79
2021/05/02 02:37:12;;;;;;;14.38;12.55;;;9.50;49.80;;;;;;6087413;23;20170;-77
2021/05/02 02:39:39;;;;;;;15.02;12.93;;;9.50;49.80;;;;;;6091548;23;20205;-75
2021/05/02 02:42:08;;;;;;;13.73;12.38;;;9.40;49.70;;;;;;6094035;23;20245;-77
2021/05/02 02:44:38;;;;;;;15.45;12.88;;;9.30;49.60;;;;;;6086744;23;20628;-78
2021/05/02 02:47:09;;;;;;;19.02;14.20;;;9.30;51.70;;;;;;6079942;23;20237;-77
2021/05/02 02:49:40;;;;;;;15.68;13.98;;;9.30;52.00;;;;;;6082255;23;20170;-78
2021/05/02 02:52:09;;;;;;;13.98;12.60;;;9.20;53.00;;;;;;6085156;23;20270;-79
2021/05/02 02:54:37;;;;;;;13.82;12.25;;;9.20;54.30;;;;;;6093975;23;20218;-79
2021/05/02 02:57:06;;;;;;;16.10;14.45;;;9.20;54.30;;;;;;6091875;23;20178;-79
2021/05/02 02:59:36;;;;;;;15.88;14.18;;;9.10;55.30;;;;;;6092846;23;20185;-79
2021/05/02 03:02:02;;;;;;;17.60;15.93;;;9.10;57.00;;;;;;6093613;23;20206;-80
2021/05/02 03:04:32;;;;;;;16.40;14.38;;;9.10;58.90;;;;;;6094105;23;20193;-79
2021/05/02 03:07:00;;;;;;;18.40;15.68;;;9.10;58.90;;;;;;6093398;23;20247;-79
2021/05/02 03:09:27;;;;;;;18.33;15.50;;;9.10;59.30;;;;;;6085893;23;20190;-78
2021/05/02 03:11:54;;;;;;;18.25;15.98;;;9.10;60.00;;;;;;6080831;23;20205;-79
2021/05/02 03:14:20;;;;;;;17.75;15.88;;;9.10;60.80;;;;;;6086204;23;20198;-78
2021/05/02 03:16:51;;;;;;;17.30;15.48;;;9.10;61.10;;;;;;6089092;23;20209;-78
2021/05/02 03:19:24;;;;;;;17.40;14.93;;;9.10;61.50;;;;;;6093642;23;20151;-80
2021/05/02 03:21:55;;;;;;;18.73;16.52;;;9.00;60.70;;;;;;6079899;23;20201;-78
2021/05/02 03:24:28;;;;;;;17.65;15.10;;;9.00;61.40;;;;;;6071863;23;20170;-77
2021/05/02 03:27:00;;;;;;;16.20;14.52;;;8.90;61.60;;;;;;6071669;23;20387;-77
2021/05/02 03:29:33;;;;;;;17.35;15.50;;;9.00;62.10;;;;;;6071596;23;20204;-77
2021/05/02 03:32:05;;;;;;;18.25;16.33;;;8.90;61.80;;;;;;6071981;23;20257;-77
2021/05/02 03:34:34;;;;;;;16.95;15.25;;;8.90;62.40;;;;;;6072859;23;20190;-78
2021/05/02 03:37:04;;;;;;;17.02;15.32;;;8.90;62.30;;;;;;6071750;23;20182;-79
2021/05/02 03:39:30;;;;;;;17.55;15.73;;;8.90;62.70;;;;;;6069545;23;20174;-78
2021/05/02 03:41:57;;;;;;;17.25;15.18;;;8.80;63.10;;;;;;6067934;23;20289;-78
2021/05/02 03:44:23;;;;;;;19.60;15.75;;;8.70;63.60;;;;;;6068017;23;20213;-78
2021/05/02 03:46:50;;;;;;;19.25;16.88;;;8.80;64.70;;;;;;6069409;23;20213;-77
2021/05/02 03:49:16;;;;;;;20.70;16.02;;;8.70;65.00;;;;;;6073531;23;20178;-78
2021/05/02 03:51:42;;;;;;;17.15;15.20;;;8.70;65.90;;;;;;6073073;23;20218;-77
2021/05/02 03:54:10;;;;;;;19.83;16.23;;;8.70;67.50;;;;;;6069901;23;20598;-77
2021/05/02 03:56:38;;;;;;;19.60;16.83;;;8.60;67.30;;;;;;6070525;23;20562;-78
2021/05/02 03:59:11;;;;;;;19.00;17.00;;;8.70;67.40;;;;;;6070573;23;20197;-78
2021/05/02 04:01:41;;;;;;;17.42;15.55;;;8.60;68.10;;;;;;6067118;23;20747;-77
2021/05/02 04:04:10;;;;;;;19.80;16.38;;;8.60;68.70;;;;;;6068568;23;20162;-78
2021/05/02 04:06:36;;;;;;;19.15;16.23;;;8.60;69.20;;;;;;6070983;23;20508;-78
2021/05/02 04:09:07;;;;;;;17.77;15.77;;;8.60;69.20;;;;;;6071998;23;20222;-76
2021/05/02 04:11:34;;;;;;;18.65;16.65;;;8.60;69.90;;;;;;6071649;23;20265;-77
2021/05/02 04:14:02;;;;;;;21.48;17.13;;;8.50;70.20;;;;;;6071844;23;20197;-78
2021/05/02 04:16:28;;;;;;;18.50;16.50;;;8.50;71.20;;;;;;6071140;23;20182;-78
2021/05/02 04:18:55;;;;;;;21.15;17.30;;;8.40;72.30;;;;;;6071802;23;20234;-78
2021/05/02 04:21:22;;;;;;;19.30;16.75;;;8.50;72.20;;;;;;6071674;23;20202;-77
2021/05/02 04:23:48;;;;;;;20.17;16.73;;;8.50;71.60;;;;;;6074960;23;20681;-76
2021/05/02 04:26:15;;;;;;;19.45;17.35;;;8.50;71.80;;;;;;6070626;23;20239;-77
2021/05/02 04:28:42;;;;;;;19.10;16.88;;;8.40;72.30;;;;;;6068050;23;20664;-77
2021/05/02 04:31:10;;;;;;;20.35;16.98;;;8.40;72.20;;;;;;6068666;23;20206;-77
2021/05/02 04:33:36;;;;;;;18.15;16.25;;;8.30;72.70;;;;;;6089512;23;20200;-79
2021/05/02 04:36:03;;;;;;;18.63;15.65;;;8.30;72.70;;;;;;6094339;23;20183;-76
2021/05/02 04:38:29;;;;;;;17.98;15.90;;;8.30;72.00;;;;;;6093612;23;20328;-76
2021/05/02 04:40:56;;;;;;;20.42;15.95;;;8.30;71.50;;;;;;6081256;23;20225;-79
2021/05/02 04:43:22;;;;;;;18.48;15.60;;;8.40;72.40;;;;;;6089902;23;20173;-75
2021/05/02 04:45:49;;;;;;;19.10;16.30;;;8.40;72.10;;;;;;6091557;23;20181;-76
2021/05/02 04:48:16;;;;;;;19.50;16.13;;;8.40;72.10;;;;;;6084825;23;20186;-76
2021/05/02 04:50:42;;;;;;;20.08;16.48;;;8.40;72.10;;;;;;6080408;23;20708;-79
2021/05/02 04:53:09;;;;;;;21.02;17.20;;;8.40;72.50;;;;;;6070326;23;20536;-78
2021/05/02 04:55:35;;;;;;;22.13;17.58;;;8.40;72.60;;;;;;6071122;23;20189;-78
2021/05/02 04:58:02;;;;;;;21.25;16.98;;;8.40;72.60;;;;;;6068337;23;20554;-77
2021/05/02 05:00:29;;;;;;;21.40;17.02;;;8.40;72.50;;;;;;6066114;23;20205;-77
2021/05/02 05:02:57;;;;;;;22.48;18.13;;;8.40;72.40;;;;;;6066984;23;20185;-79
2021/05/02 05:05:24;;;;;;;19.52;17.42;;;8.40;72.00;;;;;;6068583;23;20188;-77
2021/05/02 05:07:51;;;;;;;19.23;16.10;;;8.50;71.60;;;;;;6067658;23;20257;-78
2021/05/02 05:10:17;;;;;;;21.17;16.85;;;8.60;71.70;;;;;;6068643;23;20210;-77
2021/05/02 05:12:44;;;;;;;19.95;16.42;;;8.50;70.80;;;;;;6068453;23;20182;-78
2021/05/02 05:15:11;;;;;;;23.88;16.10;;;8.50;71.10;;;;;;6068767;23;20234;-77
2021/05/02 05:17:38;;;;;;;19.92;15.90;;;8.50;71.00;;;;;;6068493;23;20236;-78
2021/05/02 05:20:07;;;;;;;19.92;16.40;;;8.50;70.20;;;;;;6069435;23;20213;-79
2021/05/02 05:22:33;;;;;;;17.80;15.60;;;8.60;70.00;;;;;;6068904;23;20514;-78
2021/05/02 05:25:00;;;;;;;18.33;15.63;;;8.70;69.90;;;;;;6071215;23;20281;-78
2021/05/02 05:27:27;;;;;;;17.33;15.48;;;8.80;69.00;;;;;;6070920;23;20206;-77
2021/05/02 05:29:53;;;;;;;19.45;16.40;;;8.90;68.40;;;;;;6071599;23;20196;-78
2021/05/02 05:32:20;;;;;;;17.08;14.98;;;9.10;67.80;;;;;;6070503;23;20213;-78
2021/05/02 05:34:46;;;;;;;17.60;14.10;;;9.40;65.70;;;;;;6068027;23;20221;-78
2021/05/02 05:37:18;;;;;;;17.00;15.20;;;9.70;63.50;;;;;;6067048;23;20647;-77
2021/05/02 05:39:44;;;;;;;15.93;13.75;;;9.90;59.60;;;;;;6068577;23;20171;-78
2021/05/02 05:42:21;;;;;;;17.20;14.45;;;10.10;58.80;;;;;;6072048;23;20285;-79
2021/05/02 05:44:47;;;;;;;16.67;14.95;;;10.50;56.90;;;;;;6083894;23;20281;-78
2021/05/02 05:47:14;;;;;;;15.57;13.88;;;10.70;54.60;;;;;;6081366;23;20186;-79
2021/05/02 05:49:41;;;;;;;18.25;14.98;;;10.70;53.40;;;;;;6074233;23;20189;-77
2021/05/02 05:52:09;;;;;;;16.05;14.30;;;10.60;53.70;;;;;;6076815;23;20273;-78
2021/05/02 05:54:36;;;;;;;14.88;13.27;;;10.50;53.00;;;;;;6080719;23;20265;-77
2021/05/02 05:57:03;;;;;;;16.60;14.75;;;10.40;54.40;;;;;;6085391;23;20201;-79
2021/05/02 05:59:30;;;;;;;15.95;14.25;;;10.40;54.40;;;;;;6076969;23;20178;-78
2021/05/02 06:01:56;;;;;;;13.95;12.57;;;10.60;54.00;;;;;;6072467;23;20384;-78
2021/05/02 06:04:23;;;;;;;16.00;14.38;;;10.70;53.30;;;;;;6071421;23;20712;-79
2021/05/02 06:06:49;;;;;;;19.05;15.02;;;10.90;52.00;;;;;;6068299;23;20277;-78
2021/05/02 06:09:16;;;;;;;15.63;12.73;;;11.00;51.30;;;;;;6068790;23;20186;-79
2021/05/02 06:11:45;;;;;;;15.68;14.18;;;11.20;51.30;;;;;;6071048;23;20647;-80
2021/05/02 06:14:12;;;;;;;15.43;13.80;;;11.30;50.50;;;;;;6071632;23;20198;-79
2021/05/02 06:16:38;;;;;;;15.88;14.25;;;11.30;50.50;;;;;;6072780;23;20186;-77
2021/05/02 06:19:04;;;;;;;15.35;13.85;;;11.20;51.00;;;;;;6067332;23;20201;-78
2021/05/02 06:21:31;;;;;;;13.95;12.65;;;11.30;50.50;;;;;;6067138;23;20292;-77
2021/05/02 06:23:57;;;;;;;18.60;13.48;;;11.20;50.40;;;;;;6066696;23;20230;-78
2021/05/02 06:26:24;;;;;;;18.98;14.10;;;11.30;50.50;;;;;;6065902;23;20700;-77
2021/05/02 06:28:52;;;;;;;16.75;14.35;;;11.30;50.50;;;;;;6066700;23;20181;-79
2021/05/02 06:31:19;;;;;;;18.42;15.43;;;11.30;50.50;;;;;;6069208;23;20205;-80
2021/05/02 06:33:46;;;;;;;15.90;14.30;;;11.20;50.40;;;;;;6071648;23;20198;-80
2021/05/02 06:36:12;;;;;;;16.08;14.38;;;11.20;50.40;;;;;;6071012;23;20428;-78
2021/05/02 06:38:39;;;;;;;15.55;13.95;;;11.10;50.30;;;;;;6069389;23;20185;-79
2021/05/02 06:41:05;;;;;;;17.98;14.25;;;11.20;50.40;;;;;;6069511;23;20201;-77
2021/05/02 06:43:32;;;;;;;16.02;14.38;;;11.30;50.50;;;;;;6069128;23;20182;-77
2021/05/02 06:45:59;;;;;;;14.82;13.30;;;11.40;49.80;;;;;;6070363;23;20285;-79
2021/05/02 06:48:25;;;;;;;15.27;13.77;;;11.70;50.10;;;;;;6069402;23;20663;-77
2021/05/02 06:50:52;;;;;;;16.30;13.10;;;12.00;47.50;;;;;;6070075;23;20241;-79
2021/05/02 06:53:18;;;;;;;15.07;13.55;;;12.10;47.00;;;;;;6072051;23;20186;-78
2021/05/02 06:55:45;;;;;;;15.98;14.38;;;12.00;47.20;;;;;;6070817;23;20190;-80
2021/05/02 06:58:12;;;;;;;17.45;14.13;;;12.00;47.30;;;;;;6069577;23;20237;-78
2021/05/02 07:00:39;;;;;;;14.70;13.20;;;12.00;47.60;;;;;;6072142;23;20210;-77
2021/05/02 07:05:42;;;;;;;15.60;14.00;;;12.00;47.60;;;;;;6118761;23;20197;-82
2021/05/02 07:08:09;;;;;;;14.32;12.85;;;11.90;47.90;;;;;;6115495;23;20193;-84
2021/05/02 07:10:35;;;;;;;15.38;13.45;;;12.10;47.00;;;;;;6120945;23;20187;-82
2021/05/02 07:13:02;;;;;;;15.10;13.43;;;12.20;44.50;;;;;;6118217;23;20177;-83
2021/05/02 07:15:31;;;;;;;16.17;12.70;;;12.30;41.60;;;;;;6142387;23;20201;-83
2021/05/02 07:17:58;;;;;;;14.73;13.20;;;12.20;41.60;;;;;;6137306;23;20176;-83
2021/05/02 07:20:25;;;;;;;14.10;12.65;;;12.00;41.40;;;;;;6135431;23;20176;-81
2021/05/02 07:22:54;;;;;;;14.23;12.88;;;12.20;41.60;;;;;;6136824;23;20196;-83
2021/05/02 07:25:23;;;;;;;15.02;13.18;;;12.40;40.10;;;;;;6148388;23;20255;-82
2021/05/02 07:27:50;;;;;;;14.20;12.80;;;12.40;39.00;;;;;;6139220;23;20181;-78
2021/05/02 07:30:18;;;;;;;15.35;13.32;;;12.30;38.60;;;;;;6138323;23;20194;-83
2021/05/02 07:32:45;;;;;;;14.80;12.80;;;12.30;38.50;;;;;;6144194;23;20199;-81
2021/05/02 07:35:11;;;;;;;16.13;12.68;;;12.40;38.80;;;;;;6133662;23;20200;-80
2021/05/02 07:37:38;;;;;;;16.63;13.00;;;12.70;39.40;;;;;;6133375;23;20184;-81
2021/05/02 07:40:08;;;;;;;16.65;13.80;;;13.00;40.20;;;;;;6138314;23;20184;-81
2021/05/02 07:42:35;;;;;;;14.75;12.93;;;13.00;37.70;;;;;;6141803;23;20176;-81
2021/05/02 07:45:02;;;;;;;16.05;13.55;;;13.00;39.80;;;;;;6151181;23;20188;-81
2021/05/02 07:47:28;;;;;;;15.18;13.57;;;13.10;40.60;;;;;;6144692;23;20623;-81
2021/05/02 07:49:54;;;;;;;16.73;14.93;;;13.30;40.00;;;;;;6151637;23;20172;-82
2021/05/02 07:52:21;;;;;;;14.65;13.07;;;13.30;40.20;;;;;;6152526;23;20165;-81
2021/05/02 07:54:47;;;;;;;15.27;13.65;;;13.20;40.30;;;;;;6144340;23;20236;-82
2021/05/02 07:57:15;;;;;;;14.93;13.30;;;13.30;40.40;;;;;;6137731;23;20184;-79
2021/05/02 07:59:41;;;;;;;15.38;13.18;;;13.50;37.50;;;;;;6136353;23;20184;-82
2021/05/02 08:02:08;;;;;;;14.90;13.40;;;13.40;37.90;;;;;;6133843;23;20191;-83
2021/05/02 08:04:38;;;;;;;19.88;13.68;;;13.50;38.90;;;;;;6132532;23;20223;-82
2021/05/02 08:07:05;;;;;;;16.15;13.20;;;13.80;38.50;;;;;;6133336;23;20192;-81
2021/05/02 08:09:31;;;;;;;16.63;13.75;;;14.00;37.40;;;;;;6133837;23;20184;-80
2021/05/02 08:11:58;;;;;;;16.35;12.55;;;13.80;33.00;;;;;;6139704;23;20682;-84
2021/05/02 08:14:25;;;;;;;17.05;14.48;;;13.70;31.80;;;;;;6143763;23;20211;-80
2021/05/02 08:16:52;;;;;;;14.98;13.40;;;13.50;30.80;;;;;;6143516;23;20204;-79
2021/05/02 08:19:18;;;;;;;15.65;13.90;;;13.00;32.20;;;;;;6148031;23;20185;-81
2021/05/02 08:21:45;;;;;;;15.00;13.52;;;13.10;32.40;;;;;;6141091;23;20188;-80
2021/05/02 08:24:12;;;;;;;18.17;14.70;;;12.90;35.10;;;;;;6144228;23;20275;-80
2021/05/02 08:26:39;;;;;;;15.18;13.55;;;13.20;33.90;;;;;;6148179;23;20215;-81
2021/05/02 08:29:05;;;;;;;17.50;15.15;;;13.40;33.90;;;;;;6138429;23;20180;-80
2021/05/02 08:31:33;;;;;;;17.05;13.80;;;13.30;33.20;;;;;;6143120;23;20195;-80
2021/05/02 08:34:00;;;;;;;25.98;16.63;;;13.30;32.50;;;;;;6150217;23;20244;-80
2021/05/02 08:36:27;;;;;;;16.17;14.45;;;13.40;31.70;;;;;;6148237;23;20188;-80
2021/05/02 08:38:54;;;;;;;16.55;14.35;;;13.00;30.90;;;;;;6138247;23;20176;-80
2021/05/02 08:41:23;;;;;;;17.65;15.63;;;13.00;31.50;;;;;;6131669;23;20177;-81
2021/05/02 08:43:52;;;;;;;17.33;14.85;;;12.70;32.00;;;;;;6131694;23;20536;-80
2021/05/02 08:46:18;;;;;;;16.65;15.00;;;13.00;32.20;;;;;;6133268;23;20184;-81
2021/05/02 08:48:46;;;;;;;16.23;14.48;;;13.30;32.50;;;;;;6138389;23;20631;-80
2021/05/02 08:51:12;;;;;;;16.58;15.02;;;13.30;30.90;;;;;;6135959;23;20503;-80
2021/05/02 08:53:39;;;;;;;16.45;14.77;;;13.60;30.30;;;;;;6134297;23;20674;-83
2021/05/02 08:56:05;;;;;;;15.60;14.10;;;13.30;32.00;;;;;;6132438;23;20204;-82
2021/05/02 08:58:32;;;;;;;15.65;14.13;;;13.70;31.30;;;;;;6133390;23;20503;-83
2021/05/02 09:01:01;;;;;;;16.85;15.15;;;14.20;30.40;;;;;;6132431;23;20188;-81
2021/05/02 09:03:42;;;;;;;15.70;14.10;;;14.40;29.20;;;;;;6132925;23;20200;-83
2021/05/02 09:06:18;;;;;;;16.17;14.45;;;14.10;29.40;;;;;;6131829;23;20197;-84
2021/05/02 09:08:45;;;;;;;16.08;14.57;;;14.10;29.20;;;;;;6132582;23;20180;-82
2021/05/02 09:11:13;;;;;;;17.10;15.50;;;13.90;28.90;;;;;;6132598;23;20180;-81
2021/05/02 09:13:48;;;;;;;16.85;15.13;;;13.80;29.30;;;;;;6131466;23;20200;-85
2021/05/02 09:16:15;;;;;;;18.95;15.15;;;13.80;29.40;;;;;;6135124;23;20293;-82
2021/05/02 09:18:45;;;;;;;16.58;14.80;;;13.80;33.00;;;;;;6136127;23;20176;-84
2021/05/02 09:21:18;;;;;;;16.42;14.60;;;14.00;33.20;;;;;;6133994;23;20161;-83
2021/05/02 09:23:45;;;;;;;17.02;15.32;;;14.60;33.10;;;;;;6132840;23;20241;-82
2021/05/02 09:26:21;;;;;;;16.30;14.68;;;15.20;31.70;;;;;;6133137;23;20189;-82
2021/05/02 09:28:49;;;;;;;17.50;14.73;;;15.40;30.80;;;;;;6132810;23;20560;-84
2021/05/02 09:31:18;;;;;;;15.20;13.70;;;15.20;30.50;;;;;;6135742;23;20176;-81
2021/05/02 09:33:45;;;;;;;17.10;15.40;;;15.90;30.10;;;;;;6137712;23;20235;-87
2021/05/02 09:36:13;;;;;;;17.63;15.07;;;16.40;29.80;;;;;;6138026;23;20400;-82
2021/05/02 09:38:41;;;;;;;16.53;14.83;;;16.30;28.30;;;;;;6147615;23;20372;-80
2021/05/02 09:41:09;;;;;;;18.63;16.73;;;16.70;27.50;;;;;;6146557;23;20413;-82
2021/05/02 09:43:44;;;;;;;16.10;13.93;;;16.50;27.30;;;;;;6150331;23;20432;-82
2021/05/02 09:46:30;;;;;;;16.33;14.87;;;16.50;26.40;;;;;;6140329;23;20431;-81
2021/05/02 09:49:11;;;;;;;17.02;15.23;;;16.20;26.90;;;;;;6134909;23;20385;-82
2021/05/02 09:51:40;;;;;;;16.93;15.33;;;15.70;27.10;;;;;;6134820;23;20189;-80
2021/05/02 09:54:09;;;;;;;17.80;16.00;;;15.20;28.00;;;;;;6132909;23;20487;-83
2021/05/02 09:56:39;;;;;;;17.10;15.00;;;14.40;29.40;;;;;;6138742;23;20184;-79
2021/05/02 09:59:18;;;;;;;18.30;16.40;;;13.70;33.00;;;;;;6141229;23;20168;-80
2021/05/02 10:02:18;;;;;;;20.70;18.55;;;12.90;37.40;;;;;;6150008;23;20180;-78
2021/05/02 10:04:47;;;;;;;20.52;18.42;;;12.00;43.10;;;;;;6150580;23;20211;-81
2021/05/02 10:07:17;;;;;;;19.10;17.10;;;11.50;45.70;;;;;;6150972;23;20236;-80
2021/05/02 10:12:22;;;;;;;21.10;18.40;;;10.70;47.70;;;;;;6120723;23;20189;-82
2021/05/02 10:24:55;;;;;;;23.20;18.75;;;11.40;52.70;;;;;;6073143;23;20728;-79
2021/05/02 10:27:22;;;;;;;20.23;16.42;;;11.70;50.80;;;;;;6102314;23;20185;-80
2021/05/02 10:29:50;;;;;;;20.08;18.08;;;11.80;41.90;;;;;;6111521;23;20372;-81
2021/05/02 10:32:22;;;;;;;22.55;18.30;;;11.90;41.30;;;;;;6111609;23;20208;-79
2021/05/02 10:34:51;;;;;;;19.55;17.55;;;12.10;44.60;;;;;;6115408;23;20196;-79
2021/05/02 10:37:34;;;;;;;19.48;16.88;;;12.30;41.60;;;;;;6122731;23;20176;-79
2021/05/02 10:40:06;;;;;;;19.48;17.48;;;12.70;43.80;;;;;;6122435;23;20165;-80
2021/05/02 10:42:49;;;;;;;21.45;18.48;;;13.20;42.50;;;;;;6122134;23;20165;-82
2021/05/02 10:45:44;;;;;;;18.88;16.95;;;13.70;41.80;;;;;;6123761;23;20253;-80
2021/05/02 10:48:36;;;;;;;17.58;15.85;;;14.10;41.20;;;;;;6123815;23;20233;-79
2021/05/02 10:51:03;;;;;;;18.55;16.55;;;14.40;41.70;;;;;;6116733;23;20185;-79
2021/05/02 10:53:30;;;;;;;17.50;15.85;;;14.40;39.50;;;;;;6104123;23;20317;-77
2021/05/02 10:56:00;;;;;;;17.52;15.45;;;14.20;38.40;;;;;;6103339;23;20205;-79
2021/05/02 10:58:29;;;;;;;19.25;17.35;;;14.10;38.20;;;;;;6121014;23;20222;-79
2021/05/02 11:00:59;;;;;;;17.50;15.70;;;14.10;37.50;;;;;;6121547;23;20181;-79
2021/05/02 11:03:52;;;;;;;18.08;16.27;;;14.30;38.50;;;;;;6120224;23;20185;-79
2021/05/02 11:06:48;;;;;;;18.05;16.23;;;14.40;36.50;;;;;;6115427;23;20206;-79
2021/05/02 11:09:16;;;;;;;17.08;15.43;;;14.70;36.90;;;;;;6118403;23;20220;-78
2021/05/02 11:11:46;;;;;;;18.02;15.90;;;14.70;33.80;;;;;;6102818;23;20548;-78
2021/05/02 11:14:35;;;;;;;17.92;16.00;;;14.60;33.80;;;;;;6099677;23;20197;-78
2021/05/02 11:17:27;;;;;;;16.88;15.18;;;14.30;33.50;;;;;;6101901;23;20169;-77
2021/05/02 11:19:58;;;;;;;19.50;16.48;;;13.90;35.20;;;;;;6101389;23;20169;-77
2021/05/02 11:22:26;;;;;;;17.45;15.70;;;13.70;36.00;;;;;;6101044;23;20206;-77
2021/05/02 11:25:03;;;;;;;14.88;13.55;;;13.60;35.70;;;;;;6101584;23;20536;-78
2021/05/02 11:28:02;;;;;;;17.30;14.60;;;13.30;33.40;;;;;;6104101;23;20169;-77
2021/05/02 11:30:31;;;;;;;13.48;12.18;;;13.10;34.00;;;;;;6105794;23;20169;-78
2021/05/02 11:32:58;;;;;;;12.40;11.20;;;13.10;32.30;;;;;;6107100;23;20189;-77
2021/05/02 11:35:54;;;;;;;11.07;10.07;;;13.30;33.40;;;;;;6109981;23;20205;-79
2021/05/02 11:38:37;;;;;;;12.95;11.75;;;13.60;31.90;;;;;;6105872;23;20166;-80
2021/05/02 11:41:07;;;;;;;11.52;10.38;;;14.10;29.70;;;;;;6108221;23;20170;-78
2021/05/02 11:43:35;;;;;;;12.23;10.98;;;14.40;30.90;;;;;;6102639;23;20170;-78
2021/05/02 11:46:04;;;;;;;11.45;10.45;;;14.70;26.80;;;;;;6100653;23;20212;-79
2021/05/02 11:48:32;;;;;;;9.85;9.00;;;14.70;29.00;;;;;;6101045;23;20181;-78
2021/05/02 11:51:00;;;;;;;10.82;9.73;;;14.90;26.90;;;;;;6102023;23;20181;-77
2021/05/02 11:53:43;;;;;;;12.18;10.63;;;15.00;25.90;;;;;;6100386;23;20556;-77
2021/05/02 11:56:14;;;;;;;8.93;8.18;;;15.10;27.10;;;;;;6100869;23;20202;-78
2021/05/02 11:58:41;;;;;;;9.40;8.48;;;15.10;22.10;;;;;;6101265;23;20170;-78
2021/05/02 12:01:18;;;;;;;9.00;8.30;;;15.00;23.40;;;;;;6100306;23;20185;-77
2021/05/02 12:03:46;;;;;;;8.40;7.60;;;15.50;22.50;;;;;;6105287;23;20181;-77
2021/05/02 12:06:25;;;;;;;6.90;6.30;;;15.90;21.80;;;;;;6114528;23;20208;-77
2021/05/02 12:08:52;;;;;;;7.20;6.50;;;16.50;22.00;;;;;;6113501;23;20413;-79
2021/05/02 12:11:18;;;;;;;7.63;6.93;;;16.20;18.30;;;;;;6113016;23;20401;-78
2021/05/02 12:13:49;;;;;;;6.90;6.40;;;15.50;19.20;;;;;;6103046;23;20185;-78
2021/05/02 12:16:18;;;;;;;11.00;9.35;;;15.20;19.30;;;;;;6100556;23;20205;-77
2021/05/02 12:19:00;;;;;;;8.57;7.75;;;15.10;19.90;;;;;;6102259;23;20200;-77
2021/05/02 12:21:32;;;;;;;6.70;6.15;;;15.00;19.90;;;;;;6103362;23;20170;-77
2021/05/02 12:24:11;;;;;;;6.95;6.25;;;15.30;20.40;;;;;;6111681;23;20161;-78
2021/05/02 12:26:42;;;;;;;6.70;6.03;;;15.60;19.30;;;;;;6103512;23;20204;-78
2021/05/02 12:29:10;;;;;;;6.80;6.07;;;15.70;18.50;;;;;;6100339;23;20205;-78
2021/05/02 12:31:38;;;;;;;5.80;5.30;;;15.70;17.50;;;;;;6101538;23;20185;-78
2021/05/02 12:34:08;;;;;;;6.20;5.70;;;15.50;17.50;;;;;;6098668;23;20437;-77
2021/05/02 12:36:35;;;;;;;5.60;5.13;;;15.40;18.40;;;;;;6097646;23;20637;-78
2021/05/02 12:39:05;;;;;;;5.50;5.00;;;15.10;18.80;;;;;;6099776;23;20236;-78
2021/05/02 12:41:36;;;;;;;6.20;4.75;;;14.80;19.30;;;;;;6100357;23;20188;-78
2021/05/02 12:44:17;;;;;;;5.55;5.00;;;14.90;19.60;;;;;;6102833;23;20185;-77
2021/05/02 12:46:46;;;;;;;5.32;4.93;;;14.90;18.40;;;;;;6100128;23;20189;-78
2021/05/02 12:49:18;;;;;;;5.90;5.30;;;14.40;19.00;;;;;;6099554;23;20197;-77
2021/05/02 12:51:48;;;;;;;5.30;4.82;;;14.10;18.30;;;;;;6100472;23;20158;-79
2021/05/02 12:54:17;;;;;;;5.70;5.20;;;14.60;18.50;;;;;;6099753;23;20201;-78
2021/05/02 12:56:58;;;;;;;4.93;4.45;;;15.10;17.10;;;;;;6097849;23;20214;-78
2021/05/02 12:59:32;;;;;;;4.68;4.28;;;15.20;17.20;;;;;;6101645;23;20494;-78
2021/05/02 13:02:06;;;;;;;4.15;3.83;;;15.30;16.50;;;;;;6099142;23;20224;-79
2021/05/02 13:04:54;;;;;;;4.47;4.07;;;15.30;15.80;;;;;;6098725;23;20296;-78
2021/05/02 13:07:33;;;;;;;4.25;3.92;;;15.60;15.10;;;;;;6097844;23;20169;-79
2021/05/02 13:10:00;;;;;;;4.07;3.67;;;15.60;16.10;;;;;;6101517;23;20189;-77
2021/05/02 13:12:27;;;;;;;4.32;3.92;;;15.70;16.20;;;;;;6099669;23;20196;-78
2021/05/02 13:15:06;;;;;;;4.00;3.70;;;16.10;15.40;;;;;;6099554;23;20229;-78
2021/05/02 13:17:33;;;;;;;4.72;3.20;;;16.20;16.00;;;;;;6101128;23;20450;-78
2021/05/02 13:20:00;;;;;;;9.63;2.90;;;15.90;16.20;;;;;;6102845;23;20193;-79
2021/05/02 13:22:28;;;;;;;2.95;2.65;;;15.50;13.50;;;;;;6109791;23;20185;-79
2021/05/02 13:24:57;;;;;;;2.50;2.30;;;15.60;13.30;;;;;;6110764;23;20212;-78
2021/05/02 13:27:41;;;;;;;2.53;2.42;;;15.50;12.70;;;;;;6106320;23;20393;-79
2021/05/02 13:30:10;;;;;;;3.17;2.42;;;15.40;13.10;;;;;;6104710;23;20176;-79
2021/05/02 13:33:05;;;;;;;2.35;2.15;;;15.20;13.20;;;;;;6105111;23;20212;-79
2021/05/02 13:35:33;;;;;;;2.50;2.20;;;15.20;13.90;;;;;;6104212;23;20205;-78
2021/05/02 13:38:00;;;;;;;2.47;2.20;;;15.30;14.10;;;;;;6097057;23;20499;-77
2021/05/02 13:40:26;;;;;;;2.67;2.47;;;15.30;13.60;;;;;;6097317;23;20185;-77